Time;durP1;ratioP1;P1;durP2;ratioP2;P2;SDS_P1;SDS_P2;PMS_P1;PMS_P2;Temp;Humidity;BMP_temperature;BMP_pressure;BME280_temperature;BME280_humidity;BME280_pressure;Samples;Min_cycle;Max_cycle;Signal;HPM_P1;HPM_P2
2022/08/15 00:00:08;;;;;;;;;;;20.20;63.60;;;;;;5043946;28;89288;-37
2022/08/15 00:02:34;;;;;;;;;;;20.20;63.70;;;;;;5046533;28;88514;-37
2022/08/15 00:05:01;;;;;;;;;;;20.10;63.70;;;;;;5044176;28;87978;-37
2022/08/15 00:07:26;;;;;;;;;;;20.10;63.60;;;;;;5044372;28;87292;-37
2022/08/15 00:09:52;;;;;;;;;;;20.20;63.70;;;;;;5044446;28;87369;-37
2022/08/15 00:12:17;;;;;;;;;;;20.10;63.80;;;;;;5043808;28;88028;-37
2022/08/15 00:14:44;;;;;;;;;;;20.10;63.60;;;;;;5044111;28;87184;-37
2022/08/15 00:17:10;;;;;;;;;;;20.10;63.70;;;;;;5043771;27;88732;-37
2022/08/15 00:19:38;;;;;;;;;;;20.10;63.70;;;;;;5044398;28;87303;-37
2022/08/15 00:22:06;;;;;;;;;;;20.10;63.80;;;;;;5047083;28;87091;-37
2022/08/15 00:24:32;;;;;;;;;;;20.10;63.80;;;;;;5043618;28;87959;-37
2022/08/15 00:26:59;;;;;;;;;;;20.10;63.80;;;;;;5043281;28;88045;-37
2022/08/15 00:29:26;;;;;;;;;;;20.10;63.70;;;;;;5043696;28;88416;-37
2022/08/15 00:31:55;;;;;;;;;;;20.10;63.80;;;;;;5043638;28;89483;-37
2022/08/15 00:34:22;;;;;;;;;;;20.10;63.80;;;;;;5043605;28;87212;-37
2022/08/15 00:36:48;;;;;;;;;;;20.10;63.70;;;;;;5044055;27;87309;-37
2022/08/15 00:39:15;;;;;;;;;;;20.10;63.70;;;;;;5043202;28;89295;-37
2022/08/15 00:41:41;;;;;;;;;;;20.10;63.70;;;;;;5043609;28;86686;-37
2022/08/15 00:44:10;;;;;;;;;;;20.00;63.50;;;;;;5046377;27;89026;-37
2022/08/15 00:46:36;;;;;;;;;;;20.00;63.60;;;;;;5043814;28;87235;-37
2022/08/15 00:49:02;;;;;;;;;;;20.00;63.80;;;;;;5043875;27;87357;-37
2022/08/15 00:51:46;;;;;;;;;;;20.00;63.70;;;;;;5042691;28;88925;-37
2022/08/15 00:54:15;;;;;;;;;;;20.00;63.80;;;;;;5043488;27;87585;-37
2022/08/15 00:56:47;;;;;;;;;;;20.00;63.60;;;;;;5043382;27;87471;-37
2022/08/15 00:59:13;;;;;;;;;;;20.00;63.60;;;;;;5043381;28;88141;-37
2022/08/15 01:01:40;;;;;;;;;;;20.00;63.80;;;;;;5043223;28;87092;-37
2022/08/15 01:04:11;;;;;;;;;;;20.00;63.60;;;;;;5043121;27;87665;-37
2022/08/15 01:06:37;;;;;;;;;;;20.00;63.70;;;;;;5045748;28;88096;-37
2022/08/15 01:09:05;;;;;;;;;;;20.00;63.70;;;;;;5043612;28;89123;-37
2022/08/15 01:11:34;;;;;;;;;;;19.90;63.80;;;;;;5043034;28;88051;-37
2022/08/15 01:14:01;;;;;;;;;;;20.00;63.70;;;;;;5043177;28;87106;-37
2022/08/15 01:16:27;;;;;;;;;;;20.00;63.70;;;;;;5042701;27;87979;-37
2022/08/15 01:18:53;;;;;;;;;;;20.00;63.60;;;;;;5042823;28;88176;-37
2022/08/15 01:21:40;;;;;;;;;;;20.00;63.70;;;;;;5043415;28;86909;-37
2022/08/15 01:24:26;;;;;;;;;;;20.00;63.70;;;;;;5043019;27;87558;-37
2022/08/15 01:26:52;;;;;;;;;;;20.00;63.80;;;;;;5042450;28;89742;-37
2022/08/15 01:29:18;;;;;;;;;;;19.90;63.80;;;;;;5046237;28;87077;-37
2022/08/15 01:31:44;;;;;;;;;;;19.90;63.70;;;;;;5042449;28;88002;-37
2022/08/15 01:34:10;;;;;;;;;;;19.90;63.80;;;;;;5043677;28;86332;-37
2022/08/15 01:36:35;;;;;;;;;;;19.90;63.70;;;;;;5043086;28;86995;-37
2022/08/15 01:39:09;;;;;;;;;;;19.90;63.70;;;;;;5042608;28;87940;-37
2022/08/15 01:41:41;;;;;;;;;;;19.90;63.80;;;;;;5042289;28;88262;-37
2022/08/15 01:44:18;;;;;;;;;;;19.90;63.70;;;;;;5042643;28;88451;-37
2022/08/15 01:46:50;;;;;;;;;;;19.90;63.70;;;;;;5042592;28;88032;-37
2022/08/15 01:49:19;;;;;;;;;;;19.90;63.70;;;;;;5041395;28;87093;-37
2022/08/15 01:51:46;;;;;;;;;;;19.80;63.70;;;;;;5045168;28;87469;-37
2022/08/15 01:54:12;;;;;;;;;;;19.80;63.70;;;;;;5042708;28;86948;-37
2022/08/15 01:56:40;;;;;;;;;;;19.80;63.70;;;;;;5042680;27;87417;-37
2022/08/15 01:59:07;;;;;;;;;;;19.80;63.70;;;;;;5042645;28;88831;-37
2022/08/15 02:01:51;;;;;;;;;;;19.80;63.70;;;;;;5042592;28;86983;-37
2022/08/15 02:04:17;;;;;;;;;;;19.80;63.60;;;;;;5042546;27;87326;-37
2022/08/15 02:06:44;;;;;;;;;;;19.80;63.80;;;;;;5041517;28;89088;-37
2022/08/15 02:09:12;;;;;;;;;;;19.80;63.70;;;;;;5042653;28;87164;-37
2022/08/15 02:11:38;;;;;;;;;;;19.80;63.80;;;;;;5042229;27;88820;-37
2022/08/15 02:14:03;;;;;;;;;;;19.80;64.40;;;;;;5044701;27;89025;-37
2022/08/15 02:16:32;;;;;;;;;;;19.80;63.70;;;;;;5044618;27;88076;-37
2022/08/15 02:18:59;;;;;;;;;;;19.70;63.80;;;;;;5045626;28;89235;-37
2022/08/15 02:21:25;;;;;;;;;;;19.70;63.90;;;;;;5045951;28;87038;-37
2022/08/15 02:23:50;;;;;;;;;;;19.70;63.80;;;;;;5046336;28;87573;-37
2022/08/15 02:26:16;;;;;;;;;;;19.70;63.80;;;;;;5045696;28;88041;-37
2022/08/15 02:28:42;;;;;;;;;;;19.70;63.70;;;;;;5046098;28;87347;-37
2022/08/15 02:31:15;;;;;;;;;;;19.70;63.70;;;;;;5045168;27;87913;-37
2022/08/15 02:33:42;;;;;;;;;;;19.70;63.70;;;;;;5048216;28;89823;-37
2022/08/15 02:36:07;;;;;;;;;;;19.70;63.80;;;;;;5045689;28;88626;-37
2022/08/15 02:38:34;;;;;;;;;;;19.70;63.80;;;;;;5045180;28;88010;-37
2022/08/15 02:41:00;;;;;;;;;;;19.70;64.30;;;;;;5045780;28;87133;-37
2022/08/15 02:43:26;;;;;;;;;;;19.70;63.60;;;;;;5045873;28;87518;-37
2022/08/15 02:45:52;;;;;;;;;;;19.70;63.80;;;;;;5045445;28;88880;-37
2022/08/15 02:48:18;;;;;;;;;;;19.60;63.90;;;;;;5046194;28;86244;-37
2022/08/15 02:50:43;;;;;;;;;;;19.70;63.90;;;;;;5045462;27;87323;-37
2022/08/15 02:53:16;;;;;;;;;;;19.60;63.80;;;;;;5044958;28;89452;-37
2022/08/15 02:55:43;;;;;;;;;;;19.60;63.70;;;;;;5047875;28;87891;-37
2022/08/15 02:58:10;;;;;;;;;;;19.60;63.80;;;;;;5044973;28;88193;-37
2022/08/15 03:00:36;;;;;;;;;;;19.70;63.80;;;;;;5045302;28;87066;-37
2022/08/15 03:03:06;;;;;;;;;;;19.60;63.70;;;;;;5045328;28;87493;-37
2022/08/15 03:05:32;;;;;;;;;;;19.60;63.70;;;;;;5044989;28;88002;-37
2022/08/15 03:07:58;;;;;;;;;;;19.60;63.60;;;;;;5045177;28;87099;-37
2022/08/15 03:10:24;;;;;;;;;;;19.60;63.60;;;;;;5045249;27;87355;-37
2022/08/15 03:13:10;;;;;;;;;;;19.60;63.70;;;;;;5045218;28;88585;-37
2022/08/15 03:15:56;;;;;;;;;;;19.60;63.70;;;;;;5044147;28;87090;-37
2022/08/15 03:18:22;;;;;;;;;;;19.60;63.80;;;;;;5047227;27;88695;-37
2022/08/15 03:20:51;;;;;;;;;;;19.60;63.80;;;;;;5044628;28;87970;-37
2022/08/15 03:23:21;;;;;;;;;;;19.60;63.80;;;;;;5044804;27;89706;-37
2022/08/15 03:25:48;;;;;;;;;;;19.50;63.70;;;;;;5044574;28;88184;-37
2022/08/15 03:28:15;;;;;;;;;;;19.60;63.80;;;;;;5044786;28;87108;-37
2022/08/15 03:30:41;;;;;;;;;;;19.60;63.80;;;;;;5044740;27;88999;-37
2022/08/15 03:33:07;;;;;;;;;;;19.60;63.70;;;;;;5044372;28;87984;-37
2022/08/15 03:35:39;;;;;;;;;;;19.50;63.80;;;;;;5045093;28;86969;-37
2022/08/15 03:38:04;;;;;;;;;;;19.50;63.90;;;;;;5045361;27;87589;-37
2022/08/15 03:40:30;;;;;;;;;;;19.50;63.80;;;;;;5047548;28;88409;-37
2022/08/15 03:42:57;;;;;;;;;;;19.50;63.70;;;;;;5045024;28;87307;-37
2022/08/15 03:45:24;;;;;;;;;;;19.60;63.70;;;;;;5043658;28;88932;-37
2022/08/15 03:47:49;;;;;;;;;;;19.50;63.70;;;;;;5044581;28;86933;-37
2022/08/15 03:50:16;;;;;;;;;;;19.50;63.70;;;;;;5044778;28;86964;-37
2022/08/15 03:52:52;;;;;;;;;;;19.50;63.70;;;;;;5044419;28;87076;-37
2022/08/15 03:55:18;;;;;;;;;;;19.50;63.80;;;;;;5044280;28;87191;-37
2022/08/15 03:57:45;;;;;;;;;;;19.50;63.90;;;;;;5044677;27;86978;-37
2022/08/15 04:00:11;;;;;;;;;;;19.50;63.90;;;;;;5043770;28;89427;-37
2022/08/15 04:02:37;;;;;;;;;;;19.50;63.90;;;;;;5048092;28;86662;-37
2022/08/15 04:05:02;;;;;;;;;;;19.50;63.90;;;;;;5043999;28;87563;-37
2022/08/15 04:07:28;;;;;;;;;;;19.40;63.70;;;;;;5044328;28;87049;-37
2022/08/15 04:09:54;;;;;;;;;;;19.50;63.90;;;;;;5043664;27;89017;-37
2022/08/15 04:12:30;;;;;;;;;;;19.40;63.80;;;;;;5044006;28;88239;-37
2022/08/15 04:14:56;;;;;;;;;;;19.40;63.90;;;;;;5043761;28;87070;-37
2022/08/15 04:17:21;;;;;;;;;;;19.40;63.90;;;;;;5044135;28;87490;-37
2022/08/15 04:19:47;;;;;;;;;;;19.40;63.90;;;;;;5043732;28;88130;-37
2022/08/15 04:22:13;;;;;;;;;;;19.40;64.00;;;;;;5044269;28;87114;-37
2022/08/15 04:24:38;;;;;;;;;;;19.40;63.90;;;;;;5046707;28;87485;-37
2022/08/15 04:27:04;;;;;;;;;;;19.40;63.90;;;;;;5044563;28;86401;-37
2022/08/15 04:29:29;;;;;;;;;;;19.40;64.00;;;;;;5043974;28;87034;-37
2022/08/15 04:31:56;;;;;;;;;;;19.40;63.80;;;;;;5043614;28;88139;-37
2022/08/15 04:34:21;;;;;;;;;;;19.40;63.90;;;;;;5043046;28;88070;-37
2022/08/15 04:36:47;;;;;;;;;;;19.40;63.80;;;;;;5043933;27;88288;-37
2022/08/15 04:39:12;;;;;;;;;;;19.40;63.90;;;;;;5042626;27;88254;-37
2022/08/15 04:41:38;;;;;;;;;;;19.40;64.00;;;;;;5043569;28;87094;-37
2022/08/15 04:44:04;;;;;;;;;;;19.40;63.80;;;;;;5045762;28;87282;-37
2022/08/15 04:46:30;;;;;;;;;;;19.40;64.00;;;;;;5043633;28;87044;-37
2022/08/15 04:48:56;;;;;;;;;;;19.40;64.00;;;;;;5043258;28;86980;-37
2022/08/15 04:51:21;;;;;;;;;;;19.40;63.90;;;;;;5043513;28;88827;-37
2022/08/15 04:53:47;;;;;;;;;;;19.40;63.80;;;;;;5043546;28;87094;-37
2022/08/15 04:56:12;;;;;;;;;;;19.40;63.90;;;;;;5043729;28;87759;-37
2022/08/15 04:58:38;;;;;;;;;;;19.40;63.90;;;;;;5042325;28;88777;-37
2022/08/15 05:01:05;;;;;;;;;;;19.30;63.90;;;;;;5043724;28;87287;-37
2022/08/15 05:03:31;;;;;;;;;;;19.30;64.00;;;;;;5043405;27;89227;-37
2022/08/15 05:05:58;;;;;;;;;;;19.30;64.00;;;;;;5046046;28;88124;-37
2022/08/15 05:08:27;;;;;;;;;;;19.30;64.00;;;;;;5043601;28;87455;-37
2022/08/15 05:11:05;;;;;;;;;;;19.30;63.90;;;;;;5042884;28;88605;-37
2022/08/15 05:13:32;;;;;;;;;;;19.30;64.00;;;;;;5043607;28;86974;-37
2022/08/15 05:16:01;;;;;;;;;;;19.30;63.80;;;;;;5043521;28;87405;-37
2022/08/15 05:18:27;;;;;;;;;;;19.30;64.00;;;;;;5042979;28;89625;-37
2022/08/15 05:20:53;;;;;;;;;;;19.30;63.90;;;;;;5043339;28;86882;-37
2022/08/15 05:23:19;;;;;;;;;;;19.30;64.10;;;;;;5042456;27;88783;-37
2022/08/15 05:25:46;;;;;;;;;;;19.30;64.00;;;;;;5042665;28;88141;-37
2022/08/15 05:28:13;;;;;;;;;;;19.30;64.00;;;;;;5046067;28;87115;-37
2022/08/15 05:30:38;;;;;;;;;;;19.30;63.90;;;;;;5042549;27;88143;-37
2022/08/15 05:33:15;;;;;;;;;;;19.30;63.90;;;;;;5043051;28;87110;-37
2022/08/15 05:35:44;;;;;;;;;;;19.30;63.80;;;;;;5042735;27;89123;-37
2022/08/15 05:38:18;;;;;;;;;;;19.30;64.00;;;;;;5042430;28;88464;-37
2022/08/15 05:41:09;;;;;;;;;;;19.30;64.00;;;;;;5043537;28;86301;-37
2022/08/15 05:43:54;;;;;;;;;;;19.30;64.10;;;;;;5040297;28;88918;-37
2022/08/15 05:46:21;;;;;;;;;;;19.30;63.90;;;;;;5042597;27;87082;-37
2022/08/15 05:48:52;;;;;;;;;;;19.30;63.90;;;;;;5041416;28;87952;-37
2022/08/15 05:51:25;;;;;;;;;;;19.30;64.00;;;;;;5044404;27;88367;-37
2022/08/15 05:54:02;;;;;;;;;;;19.30;63.90;;;;;;5042544;28;87012;-37
2022/08/15 05:56:34;;;;;;;;;;;19.30;63.90;;;;;;5042580;28;87284;-37
2022/08/15 05:59:02;;;;;;;;;;;19.30;64.00;;;;;;5040740;28;91077;-37
2022/08/15 06:01:45;;;;;;;;;;;19.30;63.90;;;;;;5042026;28;87152;-37
2022/08/15 06:04:17;;;;;;;;;;;19.30;64.00;;;;;;5042452;27;88929;-37
2022/08/15 06:06:45;;;;;;;;;;;19.30;64.00;;;;;;5042655;27;87415;-37
2022/08/15 06:09:20;;;;;;;;;;;19.30;64.00;;;;;;5042355;28;87031;-37
2022/08/15 06:11:47;;;;;;;;;;;19.30;64.00;;;;;;5042470;28;87484;-37
2022/08/15 06:14:31;;;;;;;;;;;19.30;63.90;;;;;;5044247;28;88917;-37
2022/08/15 06:17:00;;;;;;;;;;;19.30;63.90;;;;;;5042319;27;88231;-37
2022/08/15 06:19:28;;;;;;;;;;;19.30;64.00;;;;;;5042116;28;87863;-37
2022/08/15 06:22:02;;;;;;;;;;;19.30;63.90;;;;;;5042161;28;87080;-37
2022/08/15 06:24:50;;;;;;;;;;;19.30;64.00;;;;;;5041989;27;88967;-37
2022/08/15 06:27:30;;;;;;;;;;;19.20;64.00;;;;;;5042157;28;87146;-37
2022/08/15 06:29:55;;;;;;;;;;;19.20;63.90;;;;;;5042417;28;87019;-37
2022/08/15 06:32:39;;;;;;;;;;;19.20;64.10;;;;;;5042698;28;87395;-37
2022/08/15 06:35:17;;;;;;;;;;;19.20;64.00;;;;;;5042143;27;88002;-37
2022/08/15 06:37:49;;;;;;;;;;;19.20;64.00;;;;;;5044907;28;86974;-37
2022/08/15 06:40:26;;;;;;;;;;;19.20;64.00;;;;;;5041075;28;90431;-37
2022/08/15 06:42:52;;;;;;;;;;;19.20;63.90;;;;;;5042511;27;86902;-37
2022/08/15 06:45:28;;;;;;;;;;;19.20;63.90;;;;;;5041711;27;87331;-37
2022/08/15 06:47:59;;;;;;;;;;;19.20;63.80;;;;;;5041515;28;88134;-37
2022/08/15 06:50:28;;;;;;;;;;;19.20;63.70;;;;;;5041946;28;87593;-37
2022/08/15 06:52:57;;;;;;;;;;;19.20;63.90;;;;;;5041902;27;87762;-37
2022/08/15 06:55:24;;;;;;;;;;;19.20;63.80;;;;;;5041423;28;89168;-37
2022/08/15 06:57:56;;;;;;;;;;;19.20;63.80;;;;;;5045212;28;86239;-37
2022/08/15 07:00:34;;;;;;;;;;;19.20;63.60;;;;;;5041488;27;89684;-37
2022/08/15 07:03:05;;;;;;;;;;;19.20;63.70;;;;;;5045196;28;87027;-37
2022/08/15 07:05:46;;;;;;;;;;;19.20;63.60;;;;;;5044908;28;88160;-37
2022/08/15 07:08:14;;;;;;;;;;;19.20;63.80;;;;;;5044568;28;89374;-37
2022/08/15 07:10:52;;;;;;;;;;;19.20;64.00;;;;;;5045698;28;86833;-37
2022/08/15 07:13:20;;;;;;;;;;;19.20;63.70;;;;;;5045489;28;87424;-37
2022/08/15 07:15:55;;;;;;;;;;;19.30;63.80;;;;;;5044133;28;88278;-37
2022/08/15 07:18:39;;;;;;;;;;;19.20;63.90;;;;;;5044586;28;87063;-37
2022/08/15 07:21:14;;;;;;;;;;;19.30;63.80;;;;;;5047573;27;88946;-37
2022/08/15 07:24:18;;;;;;;;;;;19.20;63.70;;;;;;5045447;28;86351;-37
2022/08/15 07:26:49;;;;;;;;;;;19.30;64.00;;;;;;5002240;28;87376;-37
2022/08/15 07:29:27;;;;;;;;;;;19.30;63.80;;;;;;5001744;28;88613;-37
2022/08/15 07:32:09;;;;;;;;;;;19.30;63.60;;;;;;5025531;27;88390;-37
2022/08/15 07:34:37;;;;;;;;;;;19.30;63.70;;;;;;5045047;28;88234;-37
2022/08/15 07:37:05;;;;;;;;;;;19.30;63.80;;;;;;5044242;28;89221;-37
2022/08/15 07:39:34;;;;;;;;;;;19.30;63.90;;;;;;5044675;28;87073;-37
2022/08/15 07:42:08;;;;;;;;;;;19.30;64.00;;;;;;5044841;28;87200;-37
2022/08/15 07:44:34;;;;;;;;;;;19.30;63.80;;;;;;5047371;28;88090;-37
2022/08/15 07:47:01;;;;;;;;;;;19.30;64.00;;;;;;5044763;28;87378;-37
2022/08/15 07:49:32;;;;;;;;;;;19.30;64.10;;;;;;5044782;27;87586;-37
2022/08/15 07:52:01;;;;;;;;;;;19.30;63.90;;;;;;5044352;28;87334;-37
2022/08/15 07:54:26;;;;;;;;;;;19.30;64.10;;;;;;5044520;27;87469;-37
2022/08/15 07:56:54;;;;;;;;;;;19.30;64.20;;;;;;5043526;28;88887;-37
2022/08/15 07:59:22;;;;;;;;;;;19.30;64.30;;;;;;5044398;28;87128;-37
2022/08/15 08:01:49;;;;;;;;;;;19.30;64.20;;;;;;5044131;28;88861;-37
2022/08/15 08:04:21;;;;;;;;;;;19.30;64.50;;;;;;5044016;28;88114;-37
2022/08/15 08:06:50;;;;;;;;;;;19.30;64.50;;;;;;5047298;28;86790;-37
2022/08/15 08:09:24;;;;;;;;;;;19.30;64.10;;;;;;5043934;28;87837;-37
2022/08/15 08:11:55;;;;;;;;;;;19.30;64.30;;;;;;5044408;28;86904;-37
2022/08/15 08:14:36;;;;;;;;;;;19.40;64.40;;;;;;5043778;28;86564;-37
2022/08/15 08:17:07;;;;;;;;;;;19.30;64.20;;;;;;5043647;28;88182;-37
2022/08/15 08:19:38;;;;;;;;;;;19.30;64.20;;;;;;5044059;28;87158;-37
2022/08/15 08:22:04;;;;;;;;;;;19.40;64.30;;;;;;5043287;28;88840;-37
2022/08/15 08:24:29;;;;;;;;;;;19.40;64.30;;;;;;5043676;28;87234;-37
2022/08/15 08:27:13;;;;;;;;;;;19.40;64.20;;;;;;5044160;28;87120;-37
2022/08/15 08:29:47;;;;;;;;;;;19.40;64.20;;;;;;5046708;27;87458;-37
2022/08/15 08:32:13;;;;;;;;;;;19.40;64.20;;;;;;5043876;28;87416;-37
2022/08/15 08:34:50;;;;;;;;;;;19.40;64.20;;;;;;5044250;28;87390;-37
2022/08/15 08:37:31;;;;;;;;;;;19.40;64.30;;;;;;5043816;28;88098;-37
2022/08/15 08:42:58;;;;;;;;;;;19.40;64.30;;;;;;5043928;28;87144;-37
2022/08/15 08:45:50;;;;;;;;;;;19.40;64.20;;;;;;5043191;28;87261;-37
2022/08/15 08:48:15;;;;;;;;;;;19.40;64.30;;;;;;5040216;28;87994;-37
2022/08/15 08:50:59;;;;;;;;;;;19.40;64.50;;;;;;5045481;27;89761;-37
2022/08/15 08:53:28;;;;;;;;;;;19.50;64.10;;;;;;5043282;28;87069;-37
2022/08/15 08:55:56;;;;;;;;;;;19.50;64.10;;;;;;5043207;27;88821;-37
2022/08/15 08:58:40;;;;;;;;;;;19.50;64.30;;;;;;5043105;28;89458;-37
2022/08/15 09:01:07;;;;;;;;;;;19.50;63.90;;;;;;5043137;28;87086;-37
2022/08/15 09:03:36;;;;;;;;;;;19.50;64.30;;;;;;5043166;27;89041;-37
2022/08/15 09:06:02;;;;;;;;;;;19.40;64.50;;;;;;5043344;28;88573;-37
2022/08/15 09:08:43;;;;;;;;;;;19.40;64.50;;;;;;5043207;28;87074;-37
2022/08/15 09:11:25;;;;;;;;;;;19.40;64.30;;;;;;5043524;28;87564;-37
2022/08/15 09:13:52;;;;;;;;;;;19.40;63.90;;;;;;5045281;28;88907;-37
2022/08/15 09:16:24;;;;;;;;;;;19.50;64.10;;;;;;5043065;28;88342;-37
2022/08/15 09:19:06;;;;;;;;;;;19.40;64.20;;;;;;5042608;28;88380;-37
2022/08/15 09:21:32;;;;;;;;;;;19.40;64.60;;;;;;5042781;28;87529;-37
2022/08/15 09:23:58;;;;;;;;;;;19.40;64.00;;;;;;5042855;27;87364;-37
2022/08/15 09:26:27;;;;;;;;;;;19.40;64.10;;;;;;5042243;28;89750;-37
2022/08/15 09:28:59;;;;;;;;;;;19.50;64.00;;;;;;5043128;28;87036;-37
2022/08/15 09:31:26;;;;;;;;;;;19.50;64.40;;;;;;5043306;28;87478;-37
2022/08/15 09:33:51;;;;;;;;;;;19.50;63.90;;;;;;5042433;28;88935;-37
2022/08/15 09:36:17;;;;;;;;;;;19.50;64.40;;;;;;5045983;28;87101;-37
2022/08/15 09:38:51;;;;;;;;;;;19.50;64.00;;;;;;5041804;28;89143;-37
2022/08/15 09:41:26;;;;;;;;;;;19.50;64.40;;;;;;5042885;28;88558;-37
2022/08/15 09:44:00;;;;;;;;;;;19.50;64.50;;;;;;5043170;28;87556;-37
2022/08/15 09:46:35;;;;;;;;;;;19.50;64.00;;;;;;5042508;28;87054;-37
2022/08/15 09:49:19;;;;;;;;;;;19.50;64.20;;;;;;5042654;28;86981;-37
2022/08/15 09:51:45;;;;;;;;;;;19.50;63.90;;;;;;5042827;27;87062;-37
2022/08/15 09:54:17;;;;;;;;;;;19.60;64.70;;;;;;5042590;28;87890;-37
2022/08/15 09:56:43;;;;;;;;;;;19.60;64.00;;;;;;5043294;28;86369;-37
2022/08/15 09:59:20;;;;;;;;;;;19.70;64.30;;;;;;5045283;27;88081;-37
2022/08/15 10:01:48;;;;;;;;;;;19.70;64.20;;;;;;5042308;28;87101;-37
2022/08/15 10:04:15;;;;;;;;;;;19.70;64.20;;;;;;5042058;27;88629;-37
2022/08/15 10:07:12;;;;;;;;;;;19.70;64.40;;;;;;5042129;28;89671;-37
2022/08/15 10:09:43;;;;;;;;;;;19.70;64.00;;;;;;5042543;28;87147;-37
2022/08/15 10:12:09;;;;;;;;;;;19.60;64.50;;;;;;5042653;28;87016;-37
2022/08/15 10:14:39;;;;;;;;;;;19.60;64.70;;;;;;5041854;28;89417;-37
2022/08/15 10:17:31;;;;;;;;;;;19.50;65.50;;;;;;5042065;28;87396;-37
2022/08/15 10:20:17;;;;;;;;;;;19.50;65.40;;;;;;5040297;28;87367;-37
2022/08/15 10:22:48;;;;;;;;;;;19.50;65.60;;;;;;5045041;28;86879;-37
2022/08/15 10:25:15;;;;;;;;;;;19.50;65.20;;;;;;5042324;28;87006;-37
2022/08/15 10:27:53;;;;;;;;;;;19.50;65.80;;;;;;5042025;28;87951;-37
2022/08/15 10:30:20;;;;;;;;;;;19.50;65.90;;;;;;5041768;28;87919;-37
2022/08/15 10:32:45;;;;;;;;;;;19.50;66.30;;;;;;5041995;27;88235;-37
2022/08/15 10:35:15;;;;;;;;;;;19.40;66.50;;;;;;5041765;27;87323;-37
2022/08/15 10:37:51;;;;;;;;;;;19.40;66.60;;;;;;5045031;28;87064;-37
2022/08/15 10:40:20;;;;;;;;;;;19.40;66.60;;;;;;5046014;28;87451;-37
2022/08/15 10:42:55;;;;;;;;;;;19.50;65.40;;;;;;5045275;28;89431;-37
2022/08/15 10:45:20;;;;;;;;;;;19.60;65.60;;;;;;5048672;28;87122;-37
2022/08/15 10:47:47;;;;;;;;;;;19.50;66.00;;;;;;5045674;28;87262;-37
2022/08/15 10:50:16;;;;;;;;;;;19.60;66.00;;;;;;5045373;28;87075;-37
2022/08/15 10:52:44;;;;;;;;;;;19.50;66.60;;;;;;5045630;27;87528;-37
2022/08/15 10:55:19;;;;;;;;;;;19.50;66.60;;;;;;5044255;28;90459;-37
2022/08/15 10:58:09;;;;;;;;;;;19.50;67.00;;;;;;5045787;28;87031;-37
2022/08/15 11:00:37;;;;;;;;;;;19.50;67.00;;;;;;5039590;28;87917;-37
2022/08/15 11:03:05;;;;;;;;;;;19.50;66.70;;;;;;5045082;28;87961;-37
2022/08/15 11:05:30;;;;;;;;;;;19.50;67.00;;;;;;5048207;28;86976;-37
2022/08/15 11:07:56;;;;;;;;;;;19.50;67.00;;;;;;5044971;28;89412;-37
2022/08/15 11:10:23;;;;;;;;;;;19.60;67.10;;;;;;5045518;28;86943;-37
2022/08/15 11:12:54;;;;;;;;;;;19.50;67.20;;;;;;5045650;27;86482;-37
2022/08/15 11:15:30;;;;;;;;;;;19.50;67.30;;;;;;5044352;28;87251;-37
2022/08/15 11:18:03;;;;;;;;;;;19.50;67.10;;;;;;5045366;28;87101;-37
2022/08/15 11:20:35;;;;;;;;;;;19.50;67.30;;;;;;5044673;27;89002;-37
2022/08/15 11:23:00;;;;;;;;;;;19.50;67.10;;;;;;5044550;28;89587;-37
2022/08/15 11:25:28;;;;;;;;;;;19.60;67.40;;;;;;5045098;28;87115;-37
2022/08/15 11:27:58;;;;;;;;;;;19.50;67.10;;;;;;5047716;27;86862;-37
2022/08/15 11:30:24;;;;;;;;;;;19.60;67.10;;;;;;5045017;28;87104;-37
2022/08/15 11:32:50;;;;;;;;;;;19.60;67.20;;;;;;5044728;27;87555;-37
2022/08/15 11:35:24;;;;;;;;;;;19.60;67.10;;;;;;5044688;28;87790;-37
2022/08/15 11:37:49;;;;;;;;;;;19.70;67.00;;;;;;5045551;28;86252;-37
2022/08/15 11:40:21;;;;;;;;;;;19.70;66.50;;;;;;5044650;27;88180;-37
2022/08/15 11:42:48;;;;;;;;;;;19.70;66.80;;;;;;5044392;28;87830;-37
2022/08/15 11:45:15;;;;;;;;;;;19.80;66.70;;;;;;5044042;27;88033;-37
2022/08/15 11:47:48;;;;;;;;;;;19.80;66.90;;;;;;5044854;27;88568;-37
2022/08/15 11:50:28;;;;;;;;;;;19.80;67.00;;;;;;5047150;28;87979;-37
2022/08/15 11:53:02;;;;;;;;;;;19.80;66.90;;;;;;5044867;28;87262;-37
2022/08/15 11:55:31;;;;;;;;;;;19.80;66.90;;;;;;5044321;28;88299;-37
2022/08/15 11:58:00;;;;;;;;;;;19.90;66.60;;;;;;5044576;28;87106;-37
2022/08/15 12:00:28;;;;;;;;;;;19.90;66.60;;;;;;5044680;27;87029;-38
2022/08/15 12:02:53;;;;;;;;;;;19.90;66.60;;;;;;5044390;28;87622;-37
2022/08/15 12:05:30;;;;;;;;;;;19.90;67.00;;;;;;5044301;28;87021;-37
2022/08/15 12:07:57;;;;;;;;;;;19.90;66.90;;;;;;5044193;27;88823;-37
2022/08/15 12:10:34;;;;;;;;;;;19.90;67.10;;;;;;5043266;28;88895;-37
2022/08/15 12:13:00;;;;;;;;;;;20.00;66.90;;;;;;5047295;28;87144;-37
2022/08/15 12:15:25;;;;;;;;;;;20.00;66.80;;;;;;5043171;28;89306;-37
2022/08/15 12:18:00;;;;;;;;;;;20.00;67.10;;;;;;5044087;28;87127;-37
2022/08/15 12:20:35;;;;;;;;;;;20.00;67.20;;;;;;5044314;28;87397;-37
2022/08/15 12:23:20;;;;;;;;;;;20.00;67.10;;;;;;5043965;28;88084;-37
2022/08/15 12:25:49;;;;;;;;;;;20.00;67.20;;;;;;5043901;27;87571;-37
2022/08/15 12:28:15;;;;;;;;;;;20.00;67.30;;;;;;5044476;27;88850;-37
2022/08/15 12:30:40;;;;;;;;;;;20.10;67.00;;;;;;5043763;28;88084;-37
2022/08/15 12:33:09;;;;;;;;;;;20.10;67.30;;;;;;5043884;28;87067;-37
2022/08/15 12:35:34;;;;;;;;;;;20.00;67.30;;;;;;5046042;27;87891;-37
2022/08/15 12:38:00;;;;;;;;;;;20.10;67.20;;;;;;5043832;28;87081;-37
2022/08/15 12:40:26;;;;;;;;;;;20.10;67.20;;;;;;5044222;27;87515;-37
2022/08/15 12:42:51;;;;;;;;;;;20.10;67.20;;;;;;5043387;28;87201;-37
2022/08/15 12:45:18;;;;;;;;;;;20.10;67.20;;;;;;5043929;28;87114;-37
2022/08/15 12:47:45;;;;;;;;;;;20.20;67.20;;;;;;5043704;27;88938;-37
2022/08/15 12:50:11;;;;;;;;;;;20.20;67.20;;;;;;5043469;28;87912;-37
2022/08/15 12:52:37;;;;;;;;;;;20.20;67.40;;;;;;5044201;28;86410;-37
2022/08/15 12:55:05;;;;;;;;;;;20.20;67.10;;;;;;5043868;28;87081;-37
2022/08/15 12:57:30;;;;;;;;;;;20.20;67.20;;;;;;5046148;28;89730;-37
2022/08/15 12:59:56;;;;;;;;;;;20.30;66.90;;;;;;5042642;27;87941;-37
2022/08/15 13:02:24;;;;;;;;;;;20.30;67.20;;;;;;5043258;28;87141;-37
2022/08/15 13:04:55;;;;;;;;;;;20.40;67.00;;;;;;5043406;28;87106;-37
2022/08/15 13:07:21;;;;;;;;;;;20.30;67.10;;;;;;5043452;28;87379;-37
2022/08/15 13:09:48;;;;;;;;;;;20.40;67.20;;;;;;5043047;28;87986;-37
2022/08/15 13:12:14;;;;;;;;;;;20.30;67.20;;;;;;5043565;28;87042;-37
2022/08/15 13:14:40;;;;;;;;;;;20.40;67.20;;;;;;5043117;27;89334;-37
2022/08/15 13:17:06;;;;;;;;;;;20.40;67.00;;;;;;5046179;28;87405;-38
2022/08/15 13:23:34;;;;;;;;;;;20.40;67.20;;;;;;5043226;27;88194;-37
2022/08/15 13:25:04;;;;;;;;;;;20.40;67.20;;;;;;5040311;28;88023;-38
2022/08/15 13:27:31;;;;;;;;;;;20.40;67.20;;;;;;5042998;27;89596;-38
2022/08/15 13:29:57;;;;;;;;;;;20.40;67.20;;;;;;5042725;28;89317;-37
2022/08/15 13:32:23;;;;;;;;;;;20.50;67.20;;;;;;5043104;28;87051;-38
2022/08/15 13:34:49;;;;;;;;;;;20.50;67.10;;;;;;5043313;27;87341;-38
2022/08/15 13:37:15;;;;;;;;;;;20.50;67.10;;;;;;5042470;28;89409;-38
2022/08/15 13:39:40;;;;;;;;;;;20.60;67.10;;;;;;5046006;28;87054;-37
2022/08/15 13:42:06;;;;;;;;;;;20.60;67.10;;;;;;5043399;28;87641;-38
2022/08/15 13:44:33;;;;;;;;;;;20.60;67.10;;;;;;5042821;28;87146;-38
2022/08/15 13:46:59;;;;;;;;;;;20.60;67.00;;;;;;5042651;27;88297;-37
2022/08/15 13:49:25;;;;;;;;;;;20.60;67.00;;;;;;5041761;28;89025;-38
2022/08/15 13:51:52;;;;;;;;;;;20.60;67.00;;;;;;5042552;28;87218;-37
2022/08/15 13:54:20;;;;;;;;;;;20.70;67.10;;;;;;5042810;27;87427;-37
2022/08/15 13:56:45;;;;;;;;;;;20.70;67.00;;;;;;5042250;28;89392;-38
2022/08/15 13:59:12;;;;;;;;;;;20.70;67.00;;;;;;5042764;28;87198;-37
2022/08/15 14:01:38;;;;;;;;;;;20.80;67.10;;;;;;5045400;27;87572;-38
2022/08/15 14:04:09;;;;;;;;;;;20.70;67.00;;;;;;5042611;28;87670;-38
2022/08/15 14:06:35;;;;;;;;;;;20.80;67.10;;;;;;5043090;27;88425;-38
2022/08/15 14:09:01;;;;;;;;;;;20.70;67.00;;;;;;5042359;28;87715;-38
2022/08/15 14:11:27;;;;;;;;;;;20.80;67.00;;;;;;5043639;28;87867;-38
2022/08/15 14:13:52;;;;;;;;;;;20.80;67.10;;;;;;5045735;28;87864;-37
2022/08/15 14:16:19;;;;;;;;;;;20.80;67.00;;;;;;5045619;28;88025;-37
2022/08/15 14:18:45;;;;;;;;;;;20.90;67.10;;;;;;5046079;28;87146;-37
2022/08/15 14:21:12;;;;;;;;;;;20.90;67.10;;;;;;5045840;27;87046;-37
2022/08/15 14:23:38;;;;;;;;;;;20.90;66.90;;;;;;5048546;28;88429;-38
2022/08/15 14:26:04;;;;;;;;;;;20.90;67.00;;;;;;5046193;27;87366;-38
2022/08/15 14:28:30;;;;;;;;;;;21.00;67.10;;;;;;5045413;28;88577;-38
2022/08/15 14:30:56;;;;;;;;;;;21.00;67.00;;;;;;5046515;28;86327;-38
2022/08/15 14:33:22;;;;;;;;;;;21.00;67.00;;;;;;5046192;28;87655;-38
2022/08/15 14:35:47;;;;;;;;;;;21.00;66.90;;;;;;5045564;28;89440;-37